El Dorado International Airport
SKBO : now visible

Airfield :











YOU CAN JOIN US ON...

 
LOGIN :

Register | Disclaimer

   EN    FR    IT 

 









Legend :    VFR   Marginal VFR   IFR   Intensive IFR   Very Intensive IFR
Visi :
Ceiling :
>= 8 km
>= 3000ft
5 to 8 km
1000 to 3000 ft
1500m to 5 km
500 to 1000 ft
800 to 1500m
200 to 500 ft
< 800m
< 200 ft
Symbols :   Thunderstorms  Fog  Heavy snow  Heavy precipitations  Wind > 20 kt






- Airport Elevation : 8361 ft
- IATA code : BOG


SKBO - El Dorado International

CURRENT METAR :
  • 191000Z 05005KT 9999 -DZ FEW012 OVC070 11/10 A3032 NOSIG

EXPIRED METARs :
  • 190900Z 05006KT 9999 -DZ FEW012 OVC070 11/10 A3032 NOSIG
  • 190800Z 04004KT 9999 -DZ FEW012 OVC070 11/10 A3032 NOSIG

TAF TAF SKBO
Valid from the 19 at 06:00 until the 20 at 06:00 UTC


190430Z 1906/2006 03004KT 9999 SCT017 SCT080
TEMPO 1906/1909 6000 -DZRA BKN015
TEMPO 1909/1912 5000 VCFG DZ SCT013
BECMG 1915/1917 25010KT
TEMPO 1919/1923 4000 TSRA SCT015CB TX20/1918Z TN09/1911Z



MET'MAP, your aeronautical weather chart ! - Copyright ORBIFLY December 2007 - Disclaimer

ORBIFLY MET'MAP TEAM :

Programming & Development : Alexandra Zaïnal
Concept & Development : Baudouin d'Aumeries
Co-Development & Prog : Marc-Olivier Méhu
Technical & hardware support : Manuel Goepfert

Contact : metmap@orbifly.com




SOURCES & CREDITS :

   NOAA       Earth
Advisory